sensor_id;sensor_type;location;lat;lon;timestamp;pressure;altitude;pressure_sealevel;temperature;humidity
37291;BME280;23175;-33.706;151.094;2023-05-18T00:01:52;100342.73;;;12.84;37.76
37291;BME280;23175;-33.706;151.094;2023-05-18T00:04:22;100340.24;;;13.88;36.76
37291;BME280;23175;-33.706;151.094;2023-05-18T00:06:53;100342.39;;;13.65;37.40
37291;BME280;23175;-33.706;151.094;2023-05-18T00:09:23;100345.58;;;11.36;41.10
37291;BME280;23175;-33.706;151.094;2023-05-18T00:11:54;100341.27;;;10.87;42.68
37291;BME280;23175;-33.706;151.094;2023-05-18T00:14:25;100339.02;;;13.31;40.34
37291;BME280;23175;-33.706;151.094;2023-05-18T00:16:55;100334.53;;;12.82;41.24
37291;BME280;23175;-33.706;151.094;2023-05-18T00:19:26;100328.72;;;14.02;39.25
37291;BME280;23175;-33.706;151.094;2023-05-18T00:21:56;100330.30;;;10.81;43.80
37291;BME280;23175;-33.706;151.094;2023-05-18T00:24:25;100330.26;;;13.70;40.66
37291;BME280;23175;-33.706;151.094;2023-05-18T00:26:55;100328.78;;;13.83;40.90
37291;BME280;23175;-33.706;151.094;2023-05-18T00:29:25;100325.21;;;12.06;42.89
37291;BME280;23175;-33.706;151.094;2023-05-18T00:31:55;100324.71;;;12.28;42.86
37291;BME280;23175;-33.706;151.094;2023-05-18T00:34:24;100324.87;;;9.77;46.13
37291;BME280;23175;-33.706;151.094;2023-05-18T00:36:54;100320.73;;;11.45;44.33
37291;BME280;23175;-33.706;151.094;2023-05-18T00:39:24;100321.45;;;9.75;46.42
37291;BME280;23175;-33.706;151.094;2023-05-18T00:41:54;100321.22;;;10.88;44.13
37291;BME280;23175;-33.706;151.094;2023-05-18T00:44:24;100320.84;;;10.91;45.39
37291;BME280;23175;-33.706;151.094;2023-05-18T00:46:54;100316.70;;;11.08;45.04
37291;BME280;23175;-33.706;151.094;2023-05-18T00:49:23;100307.00;;;9.29;46.04
37291;BME280;23175;-33.706;151.094;2023-05-18T00:51:55;100303.70;;;11.54;44.47
37291;BME280;23175;-33.706;151.094;2023-05-18T00:54:25;100298.40;;;11.99;43.92
37291;BME280;23175;-33.706;151.094;2023-05-18T00:56:56;100295.38;;;12.87;42.81
37291;BME280;23175;-33.706;151.094;2023-05-18T00:59:26;100293.93;;;12.03;44.28
37291;BME280;23175;-33.706;151.094;2023-05-18T01:01:57;100287.07;;;10.73;45.40
37291;BME280;23175;-33.706;151.094;2023-05-18T01:04:27;100282.39;;;10.31;46.93
37291;BME280;23175;-33.706;151.094;2023-05-18T01:06:57;100278.71;;;10.27;45.39
37291;BME280;23175;-33.706;151.094;2023-05-18T01:09:27;100274.85;;;12.69;42.49
37291;BME280;23175;-33.706;151.094;2023-05-18T01:12:02;100269.47;;;11.54;44.51
37291;BME280;23175;-33.706;151.094;2023-05-18T01:14:35;100260.36;;;12.30;43.17
37291;BME280;23175;-33.706;151.094;2023-05-18T01:17:15;100251.41;;;13.01;42.05
37291;BME280;23175;-33.706;151.094;2023-05-18T01:20:22;100244.93;;;11.75;43.49
37291;BME280;23175;-33.706;151.094;2023-05-18T01:23:22;100237.25;;;11.35;43.64
37291;BME280;23175;-33.706;151.094;2023-05-18T01:26:12;100234.41;;;12.21;42.09
37291;BME280;23175;-33.706;151.094;2023-05-18T01:28:44;100231.19;;;13.47;40.93
37291;BME280;23175;-33.706;151.094;2023-05-18T01:31:15;100224.34;;;14.68;40.29
37291;BME280;23175;-33.706;151.094;2023-05-18T01:33:45;100221.71;;;14.97;39.54
37291;BME280;23175;-33.706;151.094;2023-05-18T01:36:16;100225.24;;;13.88;40.85
37291;BME280;23175;-33.706;151.094;2023-05-18T01:38:46;100216.64;;;14.10;39.48
37291;BME280;23175;-33.706;151.094;2023-05-18T01:41:20;100215.25;;;15.13;38.18
37291;BME280;23175;-33.706;151.094;2023-05-18T01:43:55;100211.00;;;12.47;41.74
37291;BME280;23175;-33.706;151.094;2023-05-18T01:46:38;100201.98;;;14.12;39.82
37291;BME280;23175;-33.706;151.094;2023-05-18T01:49:15;100203.44;;;10.17;44.30
37291;BME280;23175;-33.706;151.094;2023-05-18T01:51:46;100201.05;;;9.35;47.66
37291;BME280;23175;-33.706;151.094;2023-05-18T01:54:19;100203.14;;;10.32;46.04
37291;BME280;23175;-33.706;151.094;2023-05-18T01:56:51;100202.50;;;10.35;46.85
37291;BME280;23175;-33.706;151.094;2023-05-18T01:59:23;100194.41;;;11.98;44.09
37291;BME280;23175;-33.706;151.094;2023-05-18T02:01:59;100184.87;;;13.70;41.76
37291;BME280;23175;-33.706;151.094;2023-05-18T02:04:29;100177.93;;;13.50;41.70
37291;BME280;23175;-33.706;151.094;2023-05-18T02:06:59;100178.78;;;12.45;43.74
37291;BME280;23175;-33.706;151.094;2023-05-18T02:09:29;100174.43;;;12.36;43.95
37291;BME280;23175;-33.706;151.094;2023-05-18T02:11:59;100172.67;;;11.07;44.32
37291;BME280;23175;-33.706;151.094;2023-05-18T02:14:29;100168.21;;;12.47;43.92
37291;BME280;23175;-33.706;151.094;2023-05-18T02:16:59;100157.98;;;9.53;47.47
37291;BME280;23175;-33.706;151.094;2023-05-18T02:19:29;100152.41;;;12.49;44.52
37291;BME280;23175;-33.706;151.094;2023-05-18T02:21:59;100157.87;;;11.61;45.04
37291;BME280;23175;-33.706;151.094;2023-05-18T02:24:29;100147.98;;;12.46;43.63
37291;BME280;23175;-33.706;151.094;2023-05-18T02:26:59;100139.45;;;11.78;44.42
37291;BME280;23175;-33.706;151.094;2023-05-18T02:29:29;100132.58;;;13.40;43.21
37291;BME280;23175;-33.706;151.094;2023-05-18T02:31:59;100124.02;;;12.81;42.64
37291;BME280;23175;-33.706;151.094;2023-05-18T02:34:29;100123.46;;;13.34;41.76
37291;BME280;23175;-33.706;151.094;2023-05-18T02:37:05;100125.67;;;11.67;43.51
37291;BME280;23175;-33.706;151.094;2023-05-18T02:39:34;100120.83;;;11.05;44.85
37291;BME280;23175;-33.706;151.094;2023-05-18T02:42:05;100116.32;;;10.55;45.70
37291;BME280;23175;-33.706;151.094;2023-05-18T02:44:35;100109.67;;;10.41;45.01
37291;BME280;23175;-33.706;151.094;2023-05-18T02:47:05;100098.94;;;14.02;40.15
37291;BME280;23175;-33.706;151.094;2023-05-18T02:49:36;100099.90;;;12.19;43.24
37291;BME280;23175;-33.706;151.094;2023-05-18T02:52:06;100099.37;;;11.12;44.44
37291;BME280;23175;-33.706;151.094;2023-05-18T02:54:36;100098.94;;;11.09;44.37
37291;BME280;23175;-33.706;151.094;2023-05-18T02:57:06;100089.48;;;12.09;42.50
37291;BME280;23175;-33.706;151.094;2023-05-18T02:59:35;100086.62;;;13.44;41.20
37291;BME280;23175;-33.706;151.094;2023-05-18T03:02:06;100087.19;;;12.79;41.62
37291;BME280;23175;-33.706;151.094;2023-05-18T03:04:36;100082.60;;;12.98;41.16
37291;BME280;23175;-33.706;151.094;2023-05-18T03:07:06;100083.64;;;13.21;41.52
37291;BME280;23175;-33.706;151.094;2023-05-18T03:09:36;100085.28;;;11.61;43.48
37291;BME280;23175;-33.706;151.094;2023-05-18T03:12:07;100086.08;;;12.26;44.18
37291;BME280;23175;-33.706;151.094;2023-05-18T03:14:37;100083.57;;;12.97;43.12
37291;BME280;23175;-33.706;151.094;2023-05-18T03:17:07;100075.34;;;13.54;41.51
37291;BME280;23175;-33.706;151.094;2023-05-18T03:19:36;100074.42;;;13.85;42.43
37291;BME280;23175;-33.706;151.094;2023-05-18T03:22:06;100070.14;;;13.11;43.10
37291;BME280;23175;-33.706;151.094;2023-05-18T03:24:36;100067.21;;;13.10;42.82
37291;BME280;23175;-33.706;151.094;2023-05-18T03:27:06;100067.37;;;11.93;43.83
37291;BME280;23175;-33.706;151.094;2023-05-18T03:29:35;100063.11;;;12.17;42.89
37291;BME280;23175;-33.706;151.094;2023-05-18T03:32:06;100061.05;;;12.76;41.41
37291;BME280;23175;-33.706;151.094;2023-05-18T03:34:36;100058.99;;;11.55;44.38
37291;BME280;23175;-33.706;151.094;2023-05-18T03:37:07;100052.68;;;12.74;41.82
37291;BME280;23175;-33.706;151.094;2023-05-18T03:39:36;100055.22;;;13.02;42.68
37291;BME280;23175;-33.706;151.094;2023-05-18T03:42:06;100049.09;;;13.64;41.03
37291;BME280;23175;-33.706;151.094;2023-05-18T03:44:37;100046.70;;;12.75;41.61
37291;BME280;23175;-33.706;151.094;2023-05-18T03:47:07;100042.63;;;9.97;46.53
37291;BME280;23175;-33.706;151.094;2023-05-18T03:49:38;100041.84;;;10.43;46.06
37291;BME280;23175;-33.706;151.094;2023-05-18T03:52:10;100038.57;;;12.84;42.34
37291;BME280;23175;-33.706;151.094;2023-05-18T03:54:40;100034.67;;;13.31;41.77
37291;BME280;23175;-33.706;151.094;2023-05-18T03:57:10;100035.28;;;10.55;45.67
37291;BME280;23175;-33.706;151.094;2023-05-18T03:59:40;100034.77;;;10.71;45.81
37291;BME280;23175;-33.706;151.094;2023-05-18T04:02:12;100027.79;;;13.99;41.55
37291;BME280;23175;-33.706;151.094;2023-05-18T04:04:42;100024.54;;;12.47;43.63
37291;BME280;23175;-33.706;151.094;2023-05-18T04:07:13;100018.67;;;13.16;42.25
37291;BME280;23175;-33.706;151.094;2023-05-18T04:09:43;100016.30;;;14.97;39.68
37291;BME280;23175;-33.706;151.094;2023-05-18T04:12:13;100015.05;;;14.21;40.51
37291;BME280;23175;-33.706;151.094;2023-05-18T04:14:43;100017.71;;;12.81;42.18
37291;BME280;23175;-33.706;151.094;2023-05-18T04:17:13;100017.04;;;13.93;40.61
37291;BME280;23175;-33.706;151.094;2023-05-18T04:19:43;100014.93;;;13.52;41.09
37291;BME280;23175;-33.706;151.094;2023-05-18T04:22:13;100014.92;;;13.75;41.31
37291;BME280;23175;-33.706;151.094;2023-05-18T04:24:44;100015.60;;;14.85;40.54
37291;BME280;23175;-33.706;151.094;2023-05-18T04:27:14;100010.13;;;12.91;43.04
37291;BME280;23175;-33.706;151.094;2023-05-18T04:29:44;100008.02;;;11.02;45.76
37291;BME280;23175;-33.706;151.094;2023-05-18T04:32:14;100006.96;;;11.90;43.86
37291;BME280;23175;-33.706;151.094;2023-05-18T04:34:44;100005.37;;;11.32;45.43
37291;BME280;23175;-33.706;151.094;2023-05-18T04:37:15;99995.01;;;13.49;41.96
37291;BME280;23175;-33.706;151.094;2023-05-18T04:39:44;99995.04;;;14.19;41.43
37291;BME280;23175;-33.706;151.094;2023-05-18T04:42:14;99994.66;;;12.94;43.32
37291;BME280;23175;-33.706;151.094;2023-05-18T04:44:45;99997.95;;;10.60;46.25
37291;BME280;23175;-33.706;151.094;2023-05-18T04:47:15;99995.46;;;12.39;42.48
37291;BME280;23175;-33.706;151.094;2023-05-18T04:49:46;99995.13;;;15.07;39.40
37291;BME280;23175;-33.706;151.094;2023-05-18T04:52:16;99992.62;;;13.42;40.95
37291;BME280;23175;-33.706;151.094;2023-05-18T04:54:46;99996.19;;;12.29;42.71
37291;BME280;23175;-33.706;151.094;2023-05-18T04:57:16;99991.21;;;13.23;40.64
37291;BME280;23175;-33.706;151.094;2023-05-18T04:59:46;99993.62;;;11.19;43.72
37291;BME280;23175;-33.706;151.094;2023-05-18T05:02:16;99995.65;;;11.02;44.11
37291;BME280;23175;-33.706;151.094;2023-05-18T05:04:47;99989.87;;;12.64;42.12
37291;BME280;23175;-33.706;151.094;2023-05-18T05:07:16;99989.09;;;12.36;43.54
37291;BME280;23175;-33.706;151.094;2023-05-18T05:09:46;99993.14;;;10.90;44.65
37291;BME280;23175;-33.706;151.094;2023-05-18T05:12:16;99993.14;;;10.61;45.39
37291;BME280;23175;-33.706;151.094;2023-05-18T05:14:46;99991.14;;;11.60;45.04
37291;BME280;23175;-33.706;151.094;2023-05-18T05:17:16;99995.05;;;9.33;48.62
37291;BME280;23175;-33.706;151.094;2023-05-18T05:19:45;99995.59;;;11.91;44.83
37291;BME280;23175;-33.706;151.094;2023-05-18T05:22:15;99994.72;;;12.33;44.09
37291;BME280;23175;-33.706;151.094;2023-05-18T05:24:46;99992.94;;;13.51;41.71
37291;BME280;23175;-33.706;151.094;2023-05-18T05:27:15;100001.80;;;10.41;45.84
37291;BME280;23175;-33.706;151.094;2023-05-18T05:29:46;99999.46;;;9.14;47.91
37291;BME280;23175;-33.706;151.094;2023-05-18T05:32:16;100002.52;;;12.26;43.13
37291;BME280;23175;-33.706;151.094;2023-05-18T05:34:46;100008.70;;;11.60;44.41
37291;BME280;23175;-33.706;151.094;2023-05-18T05:37:16;100007.71;;;11.53;44.97
37291;BME280;23175;-33.706;151.094;2023-05-18T05:39:46;100010.15;;;10.25;47.01
37291;BME280;23175;-33.706;151.094;2023-05-18T05:42:17;100007.40;;;12.26;43.88
37291;BME280;23175;-33.706;151.094;2023-05-18T05:44:47;100006.02;;;12.80;42.66
37291;BME280;23175;-33.706;151.094;2023-05-18T05:47:17;100005.78;;;13.34;41.48
37291;BME280;23175;-33.706;151.094;2023-05-18T05:49:47;100005.01;;;12.18;43.83
37291;BME280;23175;-33.706;151.094;2023-05-18T05:52:17;100002.98;;;12.89;42.46
37291;BME280;23175;-33.706;151.094;2023-05-18T05:54:46;100004.03;;;9.61;47.29
37291;BME280;23175;-33.706;151.094;2023-05-18T05:57:17;100004.24;;;8.55;48.99
37291;BME280;23175;-33.706;151.094;2023-05-18T05:59:47;100006.19;;;11.67;45.08
37291;BME280;23175;-33.706;151.094;2023-05-18T06:02:17;100001.77;;;13.18;41.99
37291;BME280;23175;-33.706;151.094;2023-05-18T06:04:46;100005.48;;;10.55;45.44
37291;BME280;23175;-33.706;151.094;2023-05-18T06:07:16;100008.09;;;12.29;42.72
37291;BME280;23175;-33.706;151.094;2023-05-18T06:09:46;100005.78;;;12.67;43.00
37291;BME280;23175;-33.706;151.094;2023-05-18T06:12:16;100008.54;;;12.55;42.26
37291;BME280;23175;-33.706;151.094;2023-05-18T06:14:46;100006.25;;;13.80;41.16
37291;BME280;23175;-33.706;151.094;2023-05-18T06:17:16;100008.75;;;12.48;42.14
37291;BME280;23175;-33.706;151.094;2023-05-18T06:19:46;100010.27;;;12.81;41.02
37291;BME280;23175;-33.706;151.094;2023-05-18T06:22:16;100012.81;;;14.92;40.12
37291;BME280;23175;-33.706;151.094;2023-05-18T06:24:46;100012.18;;;14.31;40.33
37291;BME280;23175;-33.706;151.094;2023-05-18T06:27:16;100017.28;;;13.18;42.68
37291;BME280;23175;-33.706;151.094;2023-05-18T06:29:47;100022.87;;;11.81;44.63
37291;BME280;23175;-33.706;151.094;2023-05-18T06:32:17;100027.34;;;12.29;43.86
37291;BME280;23175;-33.706;151.094;2023-05-18T06:34:47;100027.57;;;14.92;40.60
37291;BME280;23175;-33.706;151.094;2023-05-18T06:37:17;100028.57;;;13.78;41.68
37291;BME280;23175;-33.706;151.094;2023-05-18T06:39:47;100030.50;;;12.16;46.04
37291;BME280;23175;-33.706;151.094;2023-05-18T06:42:18;100035.36;;;12.23;46.90
37291;BME280;23175;-33.706;151.094;2023-05-18T06:44:47;100036.37;;;11.00;48.30
37291;BME280;23175;-33.706;151.094;2023-05-18T06:47:17;100028.42;;;12.15;46.92
37291;BME280;23175;-33.706;151.094;2023-05-18T06:49:47;100023.75;;;11.89;47.56
37291;BME280;23175;-33.706;151.094;2023-05-18T06:52:17;100024.60;;;10.95;49.12
37291;BME280;23175;-33.706;151.094;2023-05-18T06:54:47;100026.10;;;13.54;45.34
37291;BME280;23175;-33.706;151.094;2023-05-18T06:57:16;100028.57;;;14.84;43.82
37291;BME280;23175;-33.706;151.094;2023-05-18T06:59:46;100036.01;;;11.62;48.63
37291;BME280;23175;-33.706;151.094;2023-05-18T07:02:16;100032.48;;;13.44;44.90
37291;BME280;23175;-33.706;151.094;2023-05-18T07:04:46;100033.12;;;12.15;46.72
37291;BME280;23175;-33.706;151.094;2023-05-18T07:07:17;100035.73;;;13.18;45.15
37291;BME280;23175;-33.706;151.094;2023-05-18T07:09:47;100036.97;;;12.25;45.68
37291;BME280;23175;-33.706;151.094;2023-05-18T07:12:17;100036.74;;;13.05;45.47
37291;BME280;23175;-33.706;151.094;2023-05-18T07:14:47;100039.59;;;14.86;42.80
37291;BME280;23175;-33.706;151.094;2023-05-18T07:17:17;100040.15;;;15.28;41.95
37291;BME280;23175;-33.706;151.094;2023-05-18T07:19:47;100040.25;;;15.22;41.89
37291;BME280;23175;-33.706;151.094;2023-05-18T07:22:17;100044.46;;;15.11;42.35
37291;BME280;23175;-33.706;151.094;2023-05-18T07:24:47;100045.99;;;15.38;42.05
37291;BME280;23175;-33.706;151.094;2023-05-18T07:27:16;100050.03;;;15.14;41.77
37291;BME280;23175;-33.706;151.094;2023-05-18T07:29:46;100053.44;;;15.42;41.34
37291;BME280;23175;-33.706;151.094;2023-05-18T07:32:16;100053.28;;;14.43;43.47
37291;BME280;23175;-33.706;151.094;2023-05-18T07:34:47;100057.93;;;15.41;42.00
37291;BME280;23175;-33.706;151.094;2023-05-18T07:37:16;100058.75;;;13.10;45.32
37291;BME280;23175;-33.706;151.094;2023-05-18T07:39:47;100062.11;;;11.61;48.09
37291;BME280;23175;-33.706;151.094;2023-05-18T07:42:16;100060.90;;;14.32;43.48
37291;BME280;23175;-33.706;151.094;2023-05-18T07:44:46;100059.74;;;15.19;42.97
37291;BME280;23175;-33.706;151.094;2023-05-18T07:47:16;100062.42;;;14.78;42.94
37291;BME280;23175;-33.706;151.094;2023-05-18T07:49:46;100065.77;;;15.54;42.23
37291;BME280;23175;-33.706;151.094;2023-05-18T07:52:17;100063.22;;;15.31;42.46
37291;BME280;23175;-33.706;151.094;2023-05-18T07:54:48;100065.55;;;15.26;42.46
37291;BME280;23175;-33.706;151.094;2023-05-18T07:57:18;100069.26;;;14.86;42.39
37291;BME280;23175;-33.706;151.094;2023-05-18T07:59:48;100070.40;;;14.57;42.88
37291;BME280;23175;-33.706;151.094;2023-05-18T08:02:19;100073.17;;;15.09;42.49
37291;BME280;23175;-33.706;151.094;2023-05-18T08:04:49;100075.26;;;15.15;41.96
37291;BME280;23175;-33.706;151.094;2023-05-18T08:07:19;100071.86;;;14.75;41.44
37291;BME280;23175;-33.706;151.094;2023-05-18T08:09:49;100075.04;;;14.59;41.75
37291;BME280;23175;-33.706;151.094;2023-05-18T08:12:19;100081.00;;;14.58;42.44
37291;BME280;23175;-33.706;151.094;2023-05-18T08:14:49;100086.60;;;14.56;42.28
37291;BME280;23175;-33.706;151.094;2023-05-18T08:17:19;100091.34;;;14.43;42.57
37291;BME280;23175;-33.706;151.094;2023-05-18T08:19:49;100101.84;;;13.75;43.55
37291;BME280;23175;-33.706;151.094;2023-05-18T08:22:18;100105.69;;;14.28;42.78
37291;BME280;23175;-33.706;151.094;2023-05-18T08:24:48;100108.08;;;14.17;42.81
37291;BME280;23175;-33.706;151.094;2023-05-18T08:27:19;100109.76;;;14.11;43.18
37291;BME280;23175;-33.706;151.094;2023-05-18T08:29:49;100110.89;;;14.26;42.98
37291;BME280;23175;-33.706;151.094;2023-05-18T08:32:18;100111.74;;;14.17;43.35
37291;BME280;23175;-33.706;151.094;2023-05-18T08:34:48;100114.14;;;14.07;42.73
37291;BME280;23175;-33.706;151.094;2023-05-18T08:37:19;100122.45;;;13.93;42.64
37291;BME280;23175;-33.706;151.094;2023-05-18T08:39:48;100123.75;;;13.98;42.40
37291;BME280;23175;-33.706;151.094;2023-05-18T08:42:22;100125.89;;;13.91;42.45
37291;BME280;23175;-33.706;151.094;2023-05-18T08:45:01;100127.12;;;14.11;42.28
37291;BME280;23175;-33.706;151.094;2023-05-18T08:47:37;100130.36;;;13.57;42.32
37291;BME280;23175;-33.706;151.094;2023-05-18T08:50:08;100135.82;;;13.60;43.07
37291;BME280;23175;-33.706;151.094;2023-05-18T08:52:45;100137.03;;;13.62;43.99
37291;BME280;23175;-33.706;151.094;2023-05-18T08:55:16;100135.52;;;14.28;42.91
37291;BME280;23175;-33.706;151.094;2023-05-18T08:57:53;100136.33;;;14.13;43.12
37291;BME280;23175;-33.706;151.094;2023-05-18T09:00:24;100134.72;;;14.35;42.73
37291;BME280;23175;-33.706;151.094;2023-05-18T09:02:55;100136.90;;;13.66;42.58
37291;BME280;23175;-33.706;151.094;2023-05-18T09:05:25;100143.38;;;13.29;43.87
37291;BME280;23175;-33.706;151.094;2023-05-18T09:07:56;100146.40;;;14.28;43.40
37291;BME280;23175;-33.706;151.094;2023-05-18T09:10:27;100148.61;;;14.23;42.74
37291;BME280;23175;-33.706;151.094;2023-05-18T09:12:58;100148.14;;;13.33;42.05
37291;BME280;23175;-33.706;151.094;2023-05-18T09:15:29;100152.24;;;13.73;42.66
37291;BME280;23175;-33.706;151.094;2023-05-18T09:17:59;100155.41;;;13.17;43.54
37291;BME280;23175;-33.706;151.094;2023-05-18T09:20:30;100152.59;;;13.55;42.93
37291;BME280;23175;-33.706;151.094;2023-05-18T09:23:02;100153.74;;;13.75;42.26
37291;BME280;23175;-33.706;151.094;2023-05-18T09:25:33;100155.47;;;13.66;42.89
37291;BME280;23175;-33.706;151.094;2023-05-18T09:28:05;100154.16;;;13.51;42.59
37291;BME280;23175;-33.706;151.094;2023-05-18T09:30:41;100151.80;;;13.63;42.28
37291;BME280;23175;-33.706;151.094;2023-05-18T09:33:20;100152.19;;;13.40;42.36
37291;BME280;23175;-33.706;151.094;2023-05-18T09:35:52;100152.38;;;13.35;43.90
37291;BME280;23175;-33.706;151.094;2023-05-18T09:38:23;100163.07;;;13.09;44.41
37291;BME280;23175;-33.706;151.094;2023-05-18T09:40:53;100162.50;;;12.68;44.90
37291;BME280;23175;-33.706;151.094;2023-05-18T09:43:24;100164.00;;;12.86;43.30
37291;BME280;23175;-33.706;151.094;2023-05-18T09:45:54;100160.22;;;12.50;45.12
37291;BME280;23175;-33.706;151.094;2023-05-18T09:48:24;100162.36;;;12.18;46.04
37291;BME280;23175;-33.706;151.094;2023-05-18T09:50:55;100158.32;;;12.85;44.08
37291;BME280;23175;-33.706;151.094;2023-05-18T09:53:28;100161.18;;;12.14;44.23
37291;BME280;23175;-33.706;151.094;2023-05-18T09:56:03;100167.75;;;8.47;49.71
37291;BME280;23175;-33.706;151.094;2023-05-18T09:58:34;100169.69;;;10.92;46.79
37291;BME280;23175;-33.706;151.094;2023-05-18T10:01:04;100169.48;;;11.56;47.53
37291;BME280;23175;-33.706;151.094;2023-05-18T10:03:35;100170.73;;;11.10;47.77
37291;BME280;23175;-33.706;151.094;2023-05-18T10:06:08;100164.80;;;8.89;50.31
37291;BME280;23175;-33.706;151.094;2023-05-18T10:08:38;100161.68;;;10.87;46.62
37291;BME280;23175;-33.706;151.094;2023-05-18T10:11:09;100166.04;;;10.96;45.11
37291;BME280;23175;-33.706;151.094;2023-05-18T10:13:39;100164.89;;;10.19;46.10
37291;BME280;23175;-33.706;151.094;2023-05-18T10:16:10;100166.06;;;11.12;45.70
37291;BME280;23175;-33.706;151.094;2023-05-18T10:18:41;100164.47;;;12.32;43.15
37291;BME280;23175;-33.706;151.094;2023-05-18T10:21:12;100163.13;;;11.97;43.67
37291;BME280;23175;-33.706;151.094;2023-05-18T10:23:45;100165.91;;;13.09;41.50
37291;BME280;23175;-33.706;151.094;2023-05-18T10:26:20;100166.60;;;12.96;41.16
37291;BME280;23175;-33.706;151.094;2023-05-18T10:28:53;100167.63;;;13.29;42.01
37291;BME280;23175;-33.706;151.094;2023-05-18T10:31:26;100163.34;;;12.45;43.22
37291;BME280;23175;-33.706;151.094;2023-05-18T10:33:57;100164.87;;;11.48;44.10
37291;BME280;23175;-33.706;151.094;2023-05-18T10:36:28;100157.75;;;13.29;41.33
37291;BME280;23175;-33.706;151.094;2023-05-18T10:39:00;100157.97;;;13.00;42.66
37291;BME280;23175;-33.706;151.094;2023-05-18T10:41:31;100152.65;;;13.28;41.99
37291;BME280;23175;-33.706;151.094;2023-05-18T10:44:04;100156.21;;;12.47;42.29
37291;BME280;23175;-33.706;151.094;2023-05-18T10:46:35;100155.18;;;12.86;42.14
37291;BME280;23175;-33.706;151.094;2023-05-18T10:49:06;100153.90;;;13.36;42.21
37291;BME280;23175;-33.706;151.094;2023-05-18T10:51:36;100153.11;;;13.72;42.14
37291;BME280;23175;-33.706;151.094;2023-05-18T10:54:12;100153.28;;;14.00;41.39
37291;BME280;23175;-33.706;151.094;2023-05-18T10:56:44;100154.22;;;13.70;40.81
37291;BME280;23175;-33.706;151.094;2023-05-18T10:59:16;100150.72;;;13.64;40.89
37291;BME280;23175;-33.706;151.094;2023-05-18T11:01:49;100150.55;;;13.81;41.81
37291;BME280;23175;-33.706;151.094;2023-05-18T11:04:25;100155.64;;;13.42;42.18
37291;BME280;23175;-33.706;151.094;2023-05-18T11:06:58;100155.74;;;13.32;42.60
37291;BME280;23175;-33.706;151.094;2023-05-18T11:09:29;100156.99;;;13.58;41.99
37291;BME280;23175;-33.706;151.094;2023-05-18T11:12:00;100157.71;;;12.97;41.43
37291;BME280;23175;-33.706;151.094;2023-05-18T11:14:31;100156.93;;;13.39;41.84
37291;BME280;23175;-33.706;151.094;2023-05-18T11:17:18;100157.42;;;12.91;42.62
37291;BME280;23175;-33.706;151.094;2023-05-18T11:20:26;100156.75;;;13.24;42.06
37291;BME280;23175;-33.706;151.094;2023-05-18T11:23:03;100163.64;;;13.19;42.47
37291;BME280;23175;-33.706;151.094;2023-05-18T11:25:42;100161.08;;;13.33;42.59
37291;BME280;23175;-33.706;151.094;2023-05-18T11:28:13;100163.49;;;13.34;42.74
37291;BME280;23175;-33.706;151.094;2023-05-18T11:30:52;100165.73;;;13.21;42.33
37291;BME280;23175;-33.706;151.094;2023-05-18T11:33:25;100165.05;;;13.29;42.13
37291;BME280;23175;-33.706;151.094;2023-05-18T11:36:01;100168.78;;;13.01;41.96
37291;BME280;23175;-33.706;151.094;2023-05-18T11:38:49;100168.74;;;13.01;43.32
37291;BME280;23175;-33.706;151.094;2023-05-18T11:41:37;100167.04;;;12.68;43.40
37291;BME280;23175;-33.706;151.094;2023-05-18T11:44:17;100161.90;;;12.61;42.50
37291;BME280;23175;-33.706;151.094;2023-05-18T11:47:01;100160.99;;;12.82;43.34
37291;BME280;23175;-33.706;151.094;2023-05-18T11:49:35;100165.48;;;12.61;44.22
37291;BME280;23175;-33.706;151.094;2023-05-18T11:52:07;100163.23;;;12.80;44.75
37291;BME280;23175;-33.706;151.094;2023-05-18T11:54:44;100161.66;;;12.64;44.35
37291;BME280;23175;-33.706;151.094;2023-05-18T11:57:17;100155.43;;;12.77;43.79
37291;BME280;23175;-33.706;151.094;2023-05-18T11:59:51;100157.79;;;12.41;44.26
37291;BME280;23175;-33.706;151.094;2023-05-18T12:02:24;100156.87;;;12.38;44.20
37291;BME280;23175;-33.706;151.094;2023-05-18T12:04:57;100154.03;;;12.43;44.37
37291;BME280;23175;-33.706;151.094;2023-05-18T12:07:28;100151.96;;;12.48;44.33
37291;BME280;23175;-33.706;151.094;2023-05-18T12:09:59;100149.92;;;11.82;45.02
37291;BME280;23175;-33.706;151.094;2023-05-18T12:12:30;100150.82;;;12.46;44.52
37291;BME280;23175;-33.706;151.094;2023-05-18T12:15:01;100147.39;;;12.14;44.42
37291;BME280;23175;-33.706;151.094;2023-05-18T12:17:40;100143.92;;;12.13;44.59
37291;BME280;23175;-33.706;151.094;2023-05-18T12:20:12;100139.63;;;12.33;43.95
37291;BME280;23175;-33.706;151.094;2023-05-18T12:22:43;100138.28;;;11.94;44.34
37291;BME280;23175;-33.706;151.094;2023-05-18T12:25:14;100136.58;;;12.36;44.31
37291;BME280;23175;-33.706;151.094;2023-05-18T12:27:45;100128.48;;;11.43;44.98
37291;BME280;23175;-33.706;151.094;2023-05-18T12:30:18;100123.79;;;11.92;44.39
37291;BME280;23175;-33.706;151.094;2023-05-18T12:32:50;100120.99;;;12.43;44.13
37291;BME280;23175;-33.706;151.094;2023-05-18T12:35:23;100114.41;;;12.11;44.36
37291;BME280;23175;-33.706;151.094;2023-05-18T12:37:54;100114.71;;;11.73;44.80
37291;BME280;23175;-33.706;151.094;2023-05-18T12:40:25;100111.09;;;11.66;44.97
37291;BME280;23175;-33.706;151.094;2023-05-18T12:43:01;100112.03;;;11.74;44.90